sensor_id;sensor_type;location;lat;lon;timestamp;P1;durP1;ratioP1;P2;durP2;ratioP2
43363;SDS011;40636;52.424;-1.948;2023-06-19T00:07:14;13.15;;;8.85;;
43363;SDS011;40636;52.424;-1.948;2023-06-19T00:09:41;11.93;;;7.32;;
43363;SDS011;40636;52.424;-1.948;2023-06-19T00:12:07;14.52;;;7.88;;
43363;SDS011;40636;52.424;-1.948;2023-06-19T00:14:40;10.85;;;7.00;;
43363;SDS011;40636;52.424;-1.948;2023-06-19T00:17:07;14.32;;;8.57;;
43363;SDS011;40636;52.424;-1.948;2023-06-19T00:19:41;14.63;;;7.82;;
43363;SDS011;40636;52.424;-1.948;2023-06-19T00:22:08;13.60;;;8.00;;
43363;SDS011;40636;52.424;-1.948;2023-06-19T00:24:35;13.70;;;7.10;;
43363;SDS011;40636;52.424;-1.948;2023-06-19T00:27:02;16.08;;;8.68;;
43363;SDS011;40636;52.424;-1.948;2023-06-19T00:29:29;12.85;;;8.07;;
43363;SDS011;40636;52.424;-1.948;2023-06-19T00:31:56;12.20;;;7.63;;
43363;SDS011;40636;52.424;-1.948;2023-06-19T00:34:23;15.82;;;8.00;;
43363;SDS011;40636;52.424;-1.948;2023-06-19T00:36:51;15.05;;;7.82;;
43363;SDS011;40636;52.424;-1.948;2023-06-19T00:39:23;12.00;;;8.02;;
43363;SDS011;40636;52.424;-1.948;2023-06-19T00:41:52;15.00;;;7.10;;
43363;SDS011;40636;52.424;-1.948;2023-06-19T00:44:19;11.77;;;7.68;;
43363;SDS011;40636;52.424;-1.948;2023-06-19T00:46:46;14.50;;;8.10;;
43363;SDS011;40636;52.424;-1.948;2023-06-19T00:49:14;10.38;;;6.85;;
43363;SDS011;40636;52.424;-1.948;2023-06-19T00:51:41;10.40;;;6.82;;
43363;SDS011;40636;52.424;-1.948;2023-06-19T00:54:08;10.32;;;7.00;;
43363;SDS011;40636;52.424;-1.948;2023-06-19T00:56:36;11.65;;;7.07;;
43363;SDS011;40636;52.424;-1.948;2023-06-19T00:59:06;9.70;;;6.65;;
43363;SDS011;40636;52.424;-1.948;2023-06-19T01:01:38;12.75;;;8.57;;
43363;SDS011;40636;52.424;-1.948;2023-06-19T01:04:06;13.15;;;7.25;;
43363;SDS011;40636;52.424;-1.948;2023-06-19T01:06:37;12.95;;;8.18;;
43363;SDS011;40636;52.424;-1.948;2023-06-19T01:09:38;9.85;;;7.03;;
43363;SDS011;40636;52.424;-1.948;2023-06-19T01:12:19;12.95;;;7.68;;
43363;SDS011;40636;52.424;-1.948;2023-06-19T01:14:59;11.20;;;6.93;;
43363;SDS011;40636;52.424;-1.948;2023-06-19T01:17:29;11.07;;;6.95;;
43363;SDS011;40636;52.424;-1.948;2023-06-19T01:23:46;11.15;;;6.40;;
43363;SDS011;40636;52.424;-1.948;2023-06-19T01:26:13;12.75;;;6.95;;
43363;SDS011;40636;52.424;-1.948;2023-06-19T01:28:43;9.90;;;6.53;;
43363;SDS011;40636;52.424;-1.948;2023-06-19T01:31:13;10.68;;;6.57;;
43363;SDS011;40636;52.424;-1.948;2023-06-19T01:33:44;16.23;;;6.60;;
43363;SDS011;40636;52.424;-1.948;2023-06-19T01:36:13;13.20;;;6.22;;
43363;SDS011;40636;52.424;-1.948;2023-06-19T01:38:41;10.27;;;6.03;;
43363;SDS011;40636;52.424;-1.948;2023-06-19T01:41:10;9.63;;;6.32;;
43363;SDS011;40636;52.424;-1.948;2023-06-19T01:43:38;9.40;;;6.28;;
43363;SDS011;40636;52.424;-1.948;2023-06-19T01:46:06;9.60;;;5.78;;
43363;SDS011;40636;52.424;-1.948;2023-06-19T01:48:34;11.95;;;6.25;;
43363;SDS011;40636;52.424;-1.948;2023-06-19T02:04:02;9.98;;;6.43;;
43363;SDS011;40636;52.424;-1.948;2023-06-19T02:06:31;10.55;;;6.55;;
43363;SDS011;40636;52.424;-1.948;2023-06-19T02:08:57;11.20;;;7.10;;
43363;SDS011;40636;52.424;-1.948;2023-06-19T02:11:24;14.50;;;7.82;;
43363;SDS011;40636;52.424;-1.948;2023-06-19T02:13:51;12.40;;;7.82;;
43363;SDS011;40636;52.424;-1.948;2023-06-19T02:16:18;10.68;;;7.15;;
43363;SDS011;40636;52.424;-1.948;2023-06-19T02:18:45;10.65;;;7.30;;
43363;SDS011;40636;52.424;-1.948;2023-06-19T02:21:12;14.05;;;8.63;;
43363;SDS011;40636;52.424;-1.948;2023-06-19T02:23:39;14.52;;;7.88;;
43363;SDS011;40636;52.424;-1.948;2023-06-19T02:26:06;16.90;;;8.18;;
43363;SDS011;40636;52.424;-1.948;2023-06-19T02:28:40;11.80;;;7.65;;
43363;SDS011;40636;52.424;-1.948;2023-06-19T02:31:06;13.00;;;8.45;;
43363;SDS011;40636;52.424;-1.948;2023-06-19T02:33:33;14.18;;;8.30;;
43363;SDS011;40636;52.424;-1.948;2023-06-19T02:36:00;11.93;;;8.13;;
43363;SDS011;40636;52.424;-1.948;2023-06-19T02:38:28;12.05;;;7.35;;
43363;SDS011;40636;52.424;-1.948;2023-06-19T02:40:56;13.35;;;8.60;;
43363;SDS011;40636;52.424;-1.948;2023-06-19T02:43:28;13.25;;;8.05;;
43363;SDS011;40636;52.424;-1.948;2023-06-19T02:45:56;14.15;;;7.35;;
43363;SDS011;40636;52.424;-1.948;2023-06-19T02:48:23;16.45;;;8.07;;
43363;SDS011;40636;52.424;-1.948;2023-06-19T02:50:50;13.55;;;8.15;;
43363;SDS011;40636;52.424;-1.948;2023-06-19T02:53:17;14.27;;;7.53;;
43363;SDS011;40636;52.424;-1.948;2023-06-19T02:55:44;14.15;;;7.68;;
43363;SDS011;40636;52.424;-1.948;2023-06-19T02:58:11;11.98;;;6.80;;
43363;SDS011;40636;52.424;-1.948;2023-06-19T03:00:38;10.65;;;6.82;;
43363;SDS011;40636;52.424;-1.948;2023-06-19T03:03:05;11.63;;;6.47;;
43363;SDS011;40636;52.424;-1.948;2023-06-19T03:05:32;12.13;;;6.85;;
43363;SDS011;40636;52.424;-1.948;2023-06-19T03:08:00;13.95;;;6.95;;
43363;SDS011;40636;52.424;-1.948;2023-06-19T03:10:27;13.32;;;6.43;;
43363;SDS011;40636;52.424;-1.948;2023-06-19T03:12:54;12.73;;;6.57;;
43363;SDS011;40636;52.424;-1.948;2023-06-19T03:15:21;10.77;;;7.10;;
43363;SDS011;40636;52.424;-1.948;2023-06-19T03:17:48;11.35;;;6.97;;
43363;SDS011;40636;52.424;-1.948;2023-06-19T03:20:15;11.30;;;6.28;;
43363;SDS011;40636;52.424;-1.948;2023-06-19T03:22:42;11.88;;;6.53;;
43363;SDS011;40636;52.424;-1.948;2023-06-19T03:25:09;13.20;;;6.45;;
43363;SDS011;40636;52.424;-1.948;2023-06-19T03:27:36;19.48;;;7.40;;
43363;SDS011;40636;52.424;-1.948;2023-06-19T03:30:04;12.15;;;7.57;;
43363;SDS011;40636;52.424;-1.948;2023-06-19T03:32:32;9.48;;;6.13;;
43363;SDS011;40636;52.424;-1.948;2023-06-19T03:35:01;11.65;;;6.13;;
43363;SDS011;40636;52.424;-1.948;2023-06-19T03:37:28;10.73;;;6.00;;
43363;SDS011;40636;52.424;-1.948;2023-06-19T03:39:55;12.32;;;5.90;;
43363;SDS011;40636;52.424;-1.948;2023-06-19T03:42:22;10.15;;;6.22;;
43363;SDS011;40636;52.424;-1.948;2023-06-19T03:44:49;10.10;;;5.53;;
43363;SDS011;40636;52.424;-1.948;2023-06-19T03:47:16;11.95;;;5.82;;
43363;SDS011;40636;52.424;-1.948;2023-06-19T04:05:50;13.25;;;6.32;;
43363;SDS011;40636;52.424;-1.948;2023-06-19T04:08:17;13.82;;;5.97;;
43363;SDS011;40636;52.424;-1.948;2023-06-19T04:10:44;9.40;;;5.15;;
43363;SDS011;40636;52.424;-1.948;2023-06-19T04:13:11;10.30;;;5.07;;
43363;SDS011;40636;52.424;-1.948;2023-06-19T04:15:38;7.93;;;4.75;;
43363;SDS011;40636;52.424;-1.948;2023-06-19T04:23:56;11.07;;;6.28;;
43363;SDS011;40636;52.424;-1.948;2023-06-19T04:26:24;12.43;;;5.93;;
43363;SDS011;40636;52.424;-1.948;2023-06-19T04:28:51;10.02;;;5.75;;
43363;SDS011;40636;52.424;-1.948;2023-06-19T04:31:18;11.48;;;6.03;;
43363;SDS011;40636;52.424;-1.948;2023-06-19T04:33:45;12.57;;;6.28;;
43363;SDS011;40636;52.424;-1.948;2023-06-19T04:36:12;10.93;;;5.97;;
43363;SDS011;40636;52.424;-1.948;2023-06-19T04:38:40;13.60;;;7.13;;
43363;SDS011;40636;52.424;-1.948;2023-06-19T04:41:08;11.35;;;6.68;;
43363;SDS011;40636;52.424;-1.948;2023-06-19T04:43:35;13.05;;;6.47;;
43363;SDS011;40636;52.424;-1.948;2023-06-19T04:46:02;13.25;;;6.07;;
43363;SDS011;40636;52.424;-1.948;2023-06-19T04:55:51;14.48;;;6.53;;
43363;SDS011;40636;52.424;-1.948;2023-06-19T04:58:21;8.80;;;4.97;;
43363;SDS011;40636;52.424;-1.948;2023-06-19T05:00:48;9.52;;;6.18;;
43363;SDS011;40636;52.424;-1.948;2023-06-19T05:03:18;8.57;;;5.68;;
43363;SDS011;40636;52.424;-1.948;2023-06-19T05:05:46;9.93;;;5.47;;
43363;SDS011;40636;52.424;-1.948;2023-06-19T05:08:14;9.77;;;5.97;;
43363;SDS011;40636;52.424;-1.948;2023-06-19T05:10:41;13.00;;;6.32;;
43363;SDS011;40636;52.424;-1.948;2023-06-19T05:13:11;12.05;;;6.40;;
43363;SDS011;40636;52.424;-1.948;2023-06-19T05:15:38;11.32;;;6.07;;
43363;SDS011;40636;52.424;-1.948;2023-06-19T05:18:05;10.57;;;6.10;;
43363;SDS011;40636;52.424;-1.948;2023-06-19T05:20:32;11.38;;;6.03;;
43363;SDS011;40636;52.424;-1.948;2023-06-19T05:22:59;10.02;;;6.10;;
43363;SDS011;40636;52.424;-1.948;2023-06-19T05:25:26;10.73;;;5.97;;
43363;SDS011;40636;52.424;-1.948;2023-06-19T05:27:54;12.27;;;6.97;;
43363;SDS011;40636;52.424;-1.948;2023-06-19T05:30:21;12.55;;;6.53;;
43363;SDS011;40636;52.424;-1.948;2023-06-19T05:32:48;11.20;;;6.70;;
43363;SDS011;40636;52.424;-1.948;2023-06-19T05:35:15;10.98;;;7.20;;
43363;SDS011;40636;52.424;-1.948;2023-06-19T05:37:42;10.60;;;5.70;;
43363;SDS011;40636;52.424;-1.948;2023-06-19T05:40:10;14.13;;;6.78;;
43363;SDS011;40636;52.424;-1.948;2023-06-19T05:42:38;14.45;;;7.55;;
43363;SDS011;40636;52.424;-1.948;2023-06-19T05:45:06;13.35;;;7.80;;
43363;SDS011;40636;52.424;-1.948;2023-06-19T05:47:33;14.68;;;7.13;;
43363;SDS011;40636;52.424;-1.948;2023-06-19T05:50:00;14.57;;;9.35;;
43363;SDS011;40636;52.424;-1.948;2023-06-19T05:55:27;18.10;;;8.70;;
43363;SDS011;40636;52.424;-1.948;2023-06-19T05:57:58;18.70;;;8.07;;
43363;SDS011;40636;52.424;-1.948;2023-06-19T06:00:28;17.63;;;8.85;;
43363;SDS011;40636;52.424;-1.948;2023-06-19T06:07:16;17.77;;;8.90;;
43363;SDS011;40636;52.424;-1.948;2023-06-19T06:12:47;16.73;;;8.00;;
43363;SDS011;40636;52.424;-1.948;2023-06-19T06:15:17;15.75;;;9.13;;
43363;SDS011;40636;52.424;-1.948;2023-06-19T06:20:14;15.68;;;7.75;;
43363;SDS011;40636;52.424;-1.948;2023-06-19T06:22:42;21.83;;;9.27;;
43363;SDS011;40636;52.424;-1.948;2023-06-19T06:25:09;14.77;;;7.78;;
43363;SDS011;40636;52.424;-1.948;2023-06-19T06:27:39;17.42;;;7.82;;
43363;SDS011;40636;52.424;-1.948;2023-06-19T06:30:06;13.93;;;7.53;;
43363;SDS011;40636;52.424;-1.948;2023-06-19T06:39:15;19.30;;;8.38;;
43363;SDS011;40636;52.424;-1.948;2023-06-19T06:41:42;15.38;;;7.65;;
43363;SDS011;40636;52.424;-1.948;2023-06-19T06:47:01;14.00;;;7.70;;
43363;SDS011;40636;52.424;-1.948;2023-06-19T06:52:37;12.38;;;7.40;;
43363;SDS011;40636;52.424;-1.948;2023-06-19T06:55:05;15.90;;;7.93;;
43363;SDS011;40636;52.424;-1.948;2023-06-19T06:57:33;13.70;;;8.25;;
43363;SDS011;40636;52.424;-1.948;2023-06-19T07:00:00;17.65;;;7.88;;
43363;SDS011;40636;52.424;-1.948;2023-06-19T07:02:31;11.90;;;6.18;;
43363;SDS011;40636;52.424;-1.948;2023-06-19T07:05:00;11.68;;;7.07;;
43363;SDS011;40636;52.424;-1.948;2023-06-19T07:07:29;11.05;;;6.35;;
43363;SDS011;40636;52.424;-1.948;2023-06-19T07:09:56;14.57;;;7.00;;
43363;SDS011;40636;52.424;-1.948;2023-06-19T07:12:23;14.98;;;7.00;;
43363;SDS011;40636;52.424;-1.948;2023-06-19T07:14:58;10.20;;;6.53;;
43363;SDS011;40636;52.424;-1.948;2023-06-19T07:24:00;13.82;;;5.72;;
43363;SDS011;40636;52.424;-1.948;2023-06-19T07:26:27;8.85;;;5.38;;
43363;SDS011;40636;52.424;-1.948;2023-06-19T07:28:54;9.95;;;5.47;;
43363;SDS011;40636;52.424;-1.948;2023-06-19T07:31:23;9.85;;;5.68;;
43363;SDS011;40636;52.424;-1.948;2023-06-19T07:33:50;8.82;;;5.72;;
43363;SDS011;40636;52.424;-1.948;2023-06-19T07:36:17;12.38;;;5.72;;
43363;SDS011;40636;52.424;-1.948;2023-06-19T07:38:44;12.73;;;5.57;;
43363;SDS011;40636;52.424;-1.948;2023-06-19T07:41:12;9.65;;;4.80;;
43363;SDS011;40636;52.424;-1.948;2023-06-19T07:43:42;9.18;;;4.80;;
43363;SDS011;40636;52.424;-1.948;2023-06-19T07:46:09;9.05;;;5.07;;
43363;SDS011;40636;52.424;-1.948;2023-06-19T07:48:37;10.30;;;4.78;;
43363;SDS011;40636;52.424;-1.948;2023-06-19T07:54:13;8.63;;;5.20;;
43363;SDS011;40636;52.424;-1.948;2023-06-19T07:56:40;7.80;;;4.18;;
43363;SDS011;40636;52.424;-1.948;2023-06-19T07:59:08;8.65;;;4.20;;
43363;SDS011;40636;52.424;-1.948;2023-06-19T08:01:34;10.05;;;4.78;;
43363;SDS011;40636;52.424;-1.948;2023-06-19T08:04:01;11.18;;;4.72;;
43363;SDS011;40636;52.424;-1.948;2023-06-19T08:06:29;7.32;;;4.35;;
43363;SDS011;40636;52.424;-1.948;2023-06-19T08:08:56;10.23;;;4.35;;
43363;SDS011;40636;52.424;-1.948;2023-06-19T08:11:23;7.60;;;4.75;;
43363;SDS011;40636;52.424;-1.948;2023-06-19T08:13:50;6.90;;;3.95;;
43363;SDS011;40636;52.424;-1.948;2023-06-19T08:16:18;7.15;;;4.00;;
43363;SDS011;40636;52.424;-1.948;2023-06-19T08:18:45;12.32;;;5.05;;
43363;SDS011;40636;52.424;-1.948;2023-06-19T08:21:24;9.93;;;4.53;;
43363;SDS011;40636;52.424;-1.948;2023-06-19T08:24:30;12.40;;;4.03;;
43363;SDS011;40636;52.424;-1.948;2023-06-19T08:26:57;8.95;;;5.70;;
43363;SDS011;40636;52.424;-1.948;2023-06-19T08:29:25;10.18;;;3.40;;
43363;SDS011;40636;52.424;-1.948;2023-06-19T08:31:52;8.27;;;4.10;;
43363;SDS011;40636;52.424;-1.948;2023-06-19T08:34:18;7.60;;;3.85;;
43363;SDS011;40636;52.424;-1.948;2023-06-19T08:43:38;7.13;;;4.50;;
43363;SDS011;40636;52.424;-1.948;2023-06-19T08:46:11;8.10;;;3.22;;
43363;SDS011;40636;52.424;-1.948;2023-06-19T09:04:26;4.60;;;3.08;;
43363;SDS011;40636;52.424;-1.948;2023-06-19T09:09:58;6.50;;;3.03;;
43363;SDS011;40636;52.424;-1.948;2023-06-19T09:12:25;4.47;;;2.88;;
43363;SDS011;40636;52.424;-1.948;2023-06-19T09:25:47;4.57;;;2.75;;
43363;SDS011;40636;52.424;-1.948;2023-06-19T09:28:17;7.88;;;2.72;;
43363;SDS011;40636;52.424;-1.948;2023-06-19T09:30:55;9.48;;;2.60;;
43363;SDS011;40636;52.424;-1.948;2023-06-19T09:33:27;5.15;;;2.88;;
43363;SDS011;40636;52.424;-1.948;2023-06-19T09:35:58;4.82;;;2.47;;
43363;SDS011;40636;52.424;-1.948;2023-06-19T09:38:28;6.50;;;3.33;;
43363;SDS011;40636;52.424;-1.948;2023-06-19T09:40:57;4.97;;;2.53;;
43363;SDS011;40636;52.424;-1.948;2023-06-19T09:51:58;6.70;;;2.95;;
43363;SDS011;40636;52.424;-1.948;2023-06-19T09:54:25;4.85;;;3.13;;
43363;SDS011;40636;52.424;-1.948;2023-06-19T09:56:52;5.05;;;2.33;;
43363;SDS011;40636;52.424;-1.948;2023-06-19T09:59:25;4.35;;;2.50;;
43363;SDS011;40636;52.424;-1.948;2023-06-19T10:01:58;5.63;;;2.22;;
43363;SDS011;40636;52.424;-1.948;2023-06-19T10:04:26;4.40;;;2.80;;
43363;SDS011;40636;52.424;-1.948;2023-06-19T10:06:55;4.93;;;2.80;;
43363;SDS011;40636;52.424;-1.948;2023-06-19T10:09:24;3.45;;;2.33;;
43363;SDS011;40636;52.424;-1.948;2023-06-19T10:11:51;4.45;;;2.30;;
43363;SDS011;40636;52.424;-1.948;2023-06-19T10:14:19;4.72;;;2.85;;
43363;SDS011;40636;52.424;-1.948;2023-06-19T10:16:46;4.10;;;2.85;;
43363;SDS011;40636;52.424;-1.948;2023-06-19T10:19:15;4.40;;;2.60;;
43363;SDS011;40636;52.424;-1.948;2023-06-19T10:21:47;4.93;;;2.80;;
43363;SDS011;40636;52.424;-1.948;2023-06-19T10:27:55;7.75;;;2.90;;
43363;SDS011;40636;52.424;-1.948;2023-06-19T10:30:23;6.53;;;2.58;;
43363;SDS011;40636;52.424;-1.948;2023-06-19T10:32:51;5.40;;;2.95;;
43363;SDS011;40636;52.424;-1.948;2023-06-19T10:36:12;4.78;;;2.70;;
43363;SDS011;40636;52.424;-1.948;2023-06-19T10:38:46;5.75;;;2.88;;
43363;SDS011;40636;52.424;-1.948;2023-06-19T10:41:23;5.35;;;2.67;;
43363;SDS011;40636;52.424;-1.948;2023-06-19T10:44:10;5.15;;;2.85;;
43363;SDS011;40636;52.424;-1.948;2023-06-19T10:46:44;4.88;;;2.65;;
43363;SDS011;40636;52.424;-1.948;2023-06-19T10:49:12;4.88;;;2.72;;
43363;SDS011;40636;52.424;-1.948;2023-06-19T10:52:24;5.53;;;2.58;;
43363;SDS011;40636;52.424;-1.948;2023-06-19T10:54:58;5.45;;;3.67;;
43363;SDS011;40636;52.424;-1.948;2023-06-19T10:57:31;3.97;;;2.13;;
43363;SDS011;40636;52.424;-1.948;2023-06-19T10:59:58;8.25;;;2.92;;
43363;SDS011;40636;52.424;-1.948;2023-06-19T11:02:26;3.80;;;2.35;;
43363;SDS011;40636;52.424;-1.948;2023-06-19T11:04:53;7.00;;;3.40;;
43363;SDS011;40636;52.424;-1.948;2023-06-19T11:07:23;4.75;;;2.47;;
43363;SDS011;40636;52.424;-1.948;2023-06-19T11:09:51;5.85;;;2.42;;
43363;SDS011;40636;52.424;-1.948;2023-06-19T11:12:19;4.70;;;2.28;;
43363;SDS011;40636;52.424;-1.948;2023-06-19T11:14:55;5.22;;;2.30;;
43363;SDS011;40636;52.424;-1.948;2023-06-19T11:21:05;4.18;;;2.63;;
43363;SDS011;40636;52.424;-1.948;2023-06-19T11:23:36;4.75;;;2.50;;
43363;SDS011;40636;52.424;-1.948;2023-06-19T11:26:07;4.88;;;2.28;;
43363;SDS011;40636;52.424;-1.948;2023-06-19T11:28:35;4.15;;;2.53;;
43363;SDS011;40636;52.424;-1.948;2023-06-19T11:31:05;4.10;;;2.22;;
43363;SDS011;40636;52.424;-1.948;2023-06-19T11:33:32;3.55;;;2.22;;
43363;SDS011;40636;52.424;-1.948;2023-06-19T11:36:06;4.78;;;2.42;;
43363;SDS011;40636;52.424;-1.948;2023-06-19T11:38:57;5.07;;;2.50;;
43363;SDS011;40636;52.424;-1.948;2023-06-19T11:41:26;5.35;;;2.00;;
43363;SDS011;40636;52.424;-1.948;2023-06-19T11:43:58;3.47;;;2.30;;
43363;SDS011;40636;52.424;-1.948;2023-06-19T11:46:30;3.30;;;2.00;;
43363;SDS011;40636;52.424;-1.948;2023-06-19T11:49:11;17.02;;;5.53;;
43363;SDS011;40636;52.424;-1.948;2023-06-19T11:51:46;4.40;;;2.08;;
43363;SDS011;40636;52.424;-1.948;2023-06-19T11:54:13;5.60;;;2.22;;
43363;SDS011;40636;52.424;-1.948;2023-06-19T11:56:47;4.20;;;2.22;;
43363;SDS011;40636;52.424;-1.948;2023-06-19T11:59:14;3.90;;;2.40;;
43363;SDS011;40636;52.424;-1.948;2023-06-19T12:01:41;6.03;;;2.55;;
43363;SDS011;40636;52.424;-1.948;2023-06-19T12:04:09;4.38;;;1.80;;
43363;SDS011;40636;52.424;-1.948;2023-06-19T12:06:40;4.80;;;2.35;;
43363;SDS011;40636;52.424;-1.948;2023-06-19T12:09:07;5.28;;;2.40;;
43363;SDS011;40636;52.424;-1.948;2023-06-19T12:11:34;3.85;;;2.08;;
43363;SDS011;40636;52.424;-1.948;2023-06-19T12:14:01;3.65;;;2.35;;
43363;SDS011;40636;52.424;-1.948;2023-06-19T12:16:28;3.33;;;1.83;;
43363;SDS011;40636;52.424;-1.948;2023-06-19T12:21:32;3.17;;;1.92;;
43363;SDS011;40636;52.424;-1.948;2023-06-19T12:24:05;3.20;;;2.10;;
43363;SDS011;40636;52.424;-1.948;2023-06-19T12:26:34;2.55;;;1.50;;
43363;SDS011;40636;52.424;-1.948;2023-06-19T12:29:04;3.20;;;1.95;;
43363;SDS011;40636;52.424;-1.948;2023-06-19T12:31:31;5.38;;;1.63;;
43363;SDS011;40636;52.424;-1.948;2023-06-19T12:33:58;2.13;;;1.67;;
43363;SDS011;40636;52.424;-1.948;2023-06-19T12:36:31;2.08;;;1.50;;
43363;SDS011;40636;52.424;-1.948;2023-06-19T12:38:58;3.30;;;1.65;;
43363;SDS011;40636;52.424;-1.948;2023-06-19T12:41:25;4.25;;;2.45;;
43363;SDS011;40636;52.424;-1.948;2023-06-19T12:43:55;4.22;;;1.67;;
43363;SDS011;40636;52.424;-1.948;2023-06-19T12:46:22;3.28;;;1.95;;
43363;SDS011;40636;52.424;-1.948;2023-06-19T12:48:49;5.40;;;1.80;;
43363;SDS011;40636;52.424;-1.948;2023-06-19T12:51:17;3.00;;;2.15;;
43363;SDS011;40636;52.424;-1.948;2023-06-19T12:53:44;2.95;;;1.65;;
43363;SDS011;40636;52.424;-1.948;2023-06-19T12:56:11;5.13;;;2.38;;
43363;SDS011;40636;52.424;-1.948;2023-06-19T12:58:42;4.25;;;1.90;;
43363;SDS011;40636;52.424;-1.948;2023-06-19T13:02:11;4.35;;;1.90;;
43363;SDS011;40636;52.424;-1.948;2023-06-19T13:04:40;4.07;;;2.42;;
43363;SDS011;40636;52.424;-1.948;2023-06-19T13:10:41;2.40;;;1.67;;
43363;SDS011;40636;52.424;-1.948;2023-06-19T13:13:08;2.67;;;1.80;;
43363;SDS011;40636;52.424;-1.948;2023-06-19T13:18:30;3.45;;;2.05;;
43363;SDS011;40636;52.424;-1.948;2023-06-19T13:24:36;3.70;;;1.90;;
43363;SDS011;40636;52.424;-1.948;2023-06-19T13:33:34;5.45;;;1.65;;
43363;SDS011;40636;52.424;-1.948;2023-06-19T13:36:37;1.77;;;1.30;;
43363;SDS011;40636;52.424;-1.948;2023-06-19T13:39:05;3.78;;;1.70;;
43363;SDS011;40636;52.424;-1.948;2023-06-19T13:41:32;3.83;;;2.03;;
43363;SDS011;40636;52.424;-1.948;2023-06-19T13:44:01;5.35;;;1.88;;
43363;SDS011;40636;52.424;-1.948;2023-06-19T13:46:37;5.55;;;1.95;;
43363;SDS011;40636;52.424;-1.948;2023-06-19T13:49:49;3.10;;;1.75;;
43363;SDS011;40636;52.424;-1.948;2023-06-19T13:53:28;3.47;;;1.90;;
43363;SDS011;40636;52.424;-1.948;2023-06-19T13:55:57;3.65;;;2.05;;
43363;SDS011;40636;52.424;-1.948;2023-06-19T13:58:24;3.42;;;1.52;;
43363;SDS011;40636;52.424;-1.948;2023-06-19T14:00:51;5.65;;;1.77;;
43363;SDS011;40636;52.424;-1.948;2023-06-19T14:03:19;4.03;;;2.40;;
43363;SDS011;40636;52.424;-1.948;2023-06-19T14:05:47;5.07;;;2.28;;
43363;SDS011;40636;52.424;-1.948;2023-06-19T14:08:14;5.43;;;1.98;;
43363;SDS011;40636;52.424;-1.948;2023-06-19T14:10:41;4.90;;;3.65;;
43363;SDS011;40636;52.424;-1.948;2023-06-19T14:13:08;2.05;;;1.58;;
43363;SDS011;40636;52.424;-1.948;2023-06-19T14:15:40;3.28;;;2.10;;
43363;SDS011;40636;52.424;-1.948;2023-06-19T14:18:13;4.22;;;1.90;;
43363;SDS011;40636;52.424;-1.948;2023-06-19T14:20:43;6.93;;;1.90;;
43363;SDS011;40636;52.424;-1.948;2023-06-19T14:26:06;5.03;;;1.50;;
43363;SDS011;40636;52.424;-1.948;2023-06-19T14:28:33;4.47;;;1.98;;
43363;SDS011;40636;52.424;-1.948;2023-06-19T14:31:00;5.35;;;1.95;;
43363;SDS011;40636;52.424;-1.948;2023-06-19T14:33:27;5.22;;;2.45;;
43363;SDS011;40636;52.424;-1.948;2023-06-19T14:35:54;3.08;;;1.90;;
43363;SDS011;40636;52.424;-1.948;2023-06-19T14:38:21;5.32;;;2.40;;
43363;SDS011;40636;52.424;-1.948;2023-06-19T14:40:51;6.93;;;4.68;;
43363;SDS011;40636;52.424;-1.948;2023-06-19T14:43:18;3.13;;;2.15;;
43363;SDS011;40636;52.424;-1.948;2023-06-19T14:45:45;7.10;;;2.88;;
43363;SDS011;40636;52.424;-1.948;2023-06-19T14:48:12;5.40;;;1.90;;
43363;SDS011;40636;52.424;-1.948;2023-06-19T14:50:39;3.25;;;2.17;;
43363;SDS011;40636;52.424;-1.948;2023-06-19T14:53:06;5.47;;;2.25;;
43363;SDS011;40636;52.424;-1.948;2023-06-19T14:55:33;4.93;;;2.40;;
43363;SDS011;40636;52.424;-1.948;2023-06-19T14:58:00;5.40;;;2.05;;
43363;SDS011;40636;52.424;-1.948;2023-06-19T15:00:27;2.95;;;1.73;;
43363;SDS011;40636;52.424;-1.948;2023-06-19T15:02:54;4.75;;;1.85;;
43363;SDS011;40636;52.424;-1.948;2023-06-19T15:05:21;3.03;;;1.40;;
43363;SDS011;40636;52.424;-1.948;2023-06-19T15:07:48;2.58;;;1.73;;
43363;SDS011;40636;52.424;-1.948;2023-06-19T15:10:18;3.65;;;2.00;;
43363;SDS011;40636;52.424;-1.948;2023-06-19T15:12:46;3.03;;;1.77;;
43363;SDS011;40636;52.424;-1.948;2023-06-19T15:15:13;5.18;;;2.63;;
43363;SDS011;40636;52.424;-1.948;2023-06-19T15:17:41;3.47;;;2.05;;
43363;SDS011;40636;52.424;-1.948;2023-06-19T15:20:08;6.32;;;2.05;;
43363;SDS011;40636;52.424;-1.948;2023-06-19T15:22:36;3.05;;;1.80;;
43363;SDS011;40636;52.424;-1.948;2023-06-19T15:25:57;3.25;;;1.50;;
43363;SDS011;40636;52.424;-1.948;2023-06-19T15:29:24;4.05;;;1.40;;
43363;SDS011;40636;52.424;-1.948;2023-06-19T15:31:52;3.40;;;1.73;;
43363;SDS011;40636;52.424;-1.948;2023-06-19T15:34:22;2.67;;;1.70;;
43363;SDS011;40636;52.424;-1.948;2023-06-19T15:36:58;3.72;;;2.15;;
43363;SDS011;40636;52.424;-1.948;2023-06-19T15:39:25;4.05;;;1.73;;
43363;SDS011;40636;52.424;-1.948;2023-06-19T15:41:53;2.78;;;1.90;;
43363;SDS011;40636;52.424;-1.948;2023-06-19T15:44:20;7.47;;;2.15;;
43363;SDS011;40636;52.424;-1.948;2023-06-19T15:46:48;2.58;;;1.58;;
43363;SDS011;40636;52.424;-1.948;2023-06-19T15:49:17;2.35;;;1.75;;
43363;SDS011;40636;52.424;-1.948;2023-06-19T15:51:44;6.88;;;2.40;;
43363;SDS011;40636;52.424;-1.948;2023-06-19T15:54:11;3.42;;;1.88;;
43363;SDS011;40636;52.424;-1.948;2023-06-19T15:56:38;3.33;;;1.77;;
43363;SDS011;40636;52.424;-1.948;2023-06-19T15:59:08;2.95;;;1.90;;
43363;SDS011;40636;52.424;-1.948;2023-06-19T16:01:35;5.57;;;2.30;;
43363;SDS011;40636;52.424;-1.948;2023-06-19T16:04:02;4.10;;;2.25;;
43363;SDS011;40636;52.424;-1.948;2023-06-19T16:06:29;3.90;;;1.83;;
43363;SDS011;40636;52.424;-1.948;2023-06-19T16:08:56;3.05;;;1.52;;
43363;SDS011;40636;52.424;-1.948;2023-06-19T16:11:23;2.55;;;1.90;;
43363;SDS011;40636;52.424;-1.948;2023-06-19T16:13:50;2.97;;;1.80;;
43363;SDS011;40636;52.424;-1.948;2023-06-19T16:16:17;3.50;;;2.15;;
43363;SDS011;40636;52.424;-1.948;2023-06-19T16:18:44;2.25;;;1.63;;
43363;SDS011;40636;52.424;-1.948;2023-06-19T16:21:11;1.98;;;1.38;;
43363;SDS011;40636;52.424;-1.948;2023-06-19T16:23:38;2.28;;;1.65;;
43363;SDS011;40636;52.424;-1.948;2023-06-19T16:26:06;2.70;;;1.67;;
43363;SDS011;40636;52.424;-1.948;2023-06-19T16:28:33;2.70;;;1.58;;
43363;SDS011;40636;52.424;-1.948;2023-06-19T16:30:59;2.92;;;1.35;;
43363;SDS011;40636;52.424;-1.948;2023-06-19T16:33:27;3.33;;;1.83;;
43363;SDS011;40636;52.424;-1.948;2023-06-19T16:35:54;5.15;;;1.80;;
43363;SDS011;40636;52.424;-1.948;2023-06-19T16:38:21;3.25;;;1.60;;
43363;SDS011;40636;52.424;-1.948;2023-06-19T16:40:48;4.53;;;1.77;;
43363;SDS011;40636;52.424;-1.948;2023-06-19T16:43:15;2.72;;;1.67;;
43363;SDS011;40636;52.424;-1.948;2023-06-19T16:45:42;3.33;;;1.65;;
43363;SDS011;40636;52.424;-1.948;2023-06-19T16:48:09;5.60;;;1.95;;
43363;SDS011;40636;52.424;-1.948;2023-06-19T16:50:36;2.00;;;1.40;;
43363;SDS011;40636;52.424;-1.948;2023-06-19T16:53:02;2.60;;;1.38;;
43363;SDS011;40636;52.424;-1.948;2023-06-19T16:55:29;5.22;;;1.60;;
43363;SDS011;40636;52.424;-1.948;2023-06-19T16:57:56;4.97;;;1.85;;
43363;SDS011;40636;52.424;-1.948;2023-06-19T17:00:23;6.10;;;1.77;;
43363;SDS011;40636;52.424;-1.948;2023-06-19T17:02:52;4.97;;;1.90;;
43363;SDS011;40636;52.424;-1.948;2023-06-19T17:05:22;4.13;;;1.58;;
43363;SDS011;40636;52.424;-1.948;2023-06-19T17:07:49;3.78;;;1.63;;
43363;SDS011;40636;52.424;-1.948;2023-06-19T17:10:16;5.43;;;1.80;;
43363;SDS011;40636;52.424;-1.948;2023-06-19T17:12:43;3.55;;;2.15;;
43363;SDS011;40636;52.424;-1.948;2023-06-19T17:15:11;4.80;;;1.77;;
43363;SDS011;40636;52.424;-1.948;2023-06-19T17:17:38;3.97;;;2.00;;
43363;SDS011;40636;52.424;-1.948;2023-06-19T17:20:05;5.03;;;1.88;;
43363;SDS011;40636;52.424;-1.948;2023-06-19T17:22:35;4.60;;;1.95;;
43363;SDS011;40636;52.424;-1.948;2023-06-19T17:25:02;2.38;;;1.70;;